Terminal Aerodrome Forecast
Issued by NWS Memphis, TN

Home | Current Version | Previous Version | Text Only | Print | Product List | Glossary On
Versions: 1 2 3 4 5 6 7 8 9 10 11 12 13
000
FTUS44 KMEG 172300 RRA
TAFMKL
TAF
KMKL 172342Z 1800/1824 11006KT P6SM SCT250
     FM180100 VRB03KT P6SM FEW050 OVC200
     FM181000 08005KT P6SM VCSH BKN035 OVC100
     FM181600 06006KT P6SM FEW035 BKN060
     FM182100 03005KT P6SM FEW035 SCT250=

USA.gov is the U.S. government's official web portal to all federal, state and local government web resources and services.